Kawasaki, Japan
Current Conditions -  °F | °C
As of 4:00 PM on Sunday 23 Nov 2014 (Local Time) from RJTT Reporting Station
Scattered Clouds Scattered Clouds  
Wind Chill: 63°   Ceiling: Unl
Heat Index: 63°   Visibility: 6mi
Dew Point: 54°   Wind: 15mph
Humidity: 72%   Direction: 80°E
Pressure: 30.12"   Gusts: NA
Location:  35.53°N, 139.7°E
Report Text: RJTT 230700Z 08013KT 9999 FEW030 SCT/// 17/12 Q1020 NOSIG
Loading
Personal Weather Stations






























Interactive Weather Map New forecast layout! Learn more

10-Day Weather Forecast

Advertisements
Track Severe Weather on mobile